sensor_id;sensor_type;location;lat;lon;timestamp;P1;P2;P0
66195;PMS7003;53000;45.182;5.736;2022-10-23T00:00:59;0.00;0.00;0.00
66195;PMS7003;53000;45.182;5.736;2022-10-23T00:03:24;0.00;0.00;0.00
66195;PMS7003;53000;45.182;5.736;2022-10-23T00:05:50;1.33;1.00;0.67
66195;PMS7003;53000;45.182;5.736;2022-10-23T00:08:17;1.00;1.00;1.00
66195;PMS7003;53000;45.182;5.736;2022-10-23T00:10:46;1.00;1.00;1.00
66195;PMS7003;53000;45.182;5.736;2022-10-23T00:13:11;1.33;1.00;1.00
66195;PMS7003;53000;45.182;5.736;2022-10-23T00:15:36;0.67;0.67;0.33
66195;PMS7003;53000;45.182;5.736;2022-10-23T00:18:02;1.67;1.67;1.00
66195;PMS7003;53000;45.182;5.736;2022-10-23T00:20:32;2.33;0.67;0.67
66195;PMS7003;53000;45.182;5.736;2022-10-23T00:22:58;2.00;1.00;0.33
66195;PMS7003;53000;45.182;5.736;2022-10-23T00:25:25;1.00;1.00;0.33
66195;PMS7003;53000;45.182;5.736;2022-10-23T00:27:54;1.33;1.00;1.00
66195;PMS7003;53000;45.182;5.736;2022-10-23T00:30:19;2.33;1.00;1.00
66195;PMS7003;53000;45.182;5.736;2022-10-23T00:32:44;2.33;1.00;1.00
66195;PMS7003;53000;45.182;5.736;2022-10-23T00:35:10;1.33;1.33;1.00
66195;PMS7003;53000;45.182;5.736;2022-10-23T00:37:38;2.00;1.00;1.00
66195;PMS7003;53000;45.182;5.736;2022-10-23T00:40:04;0.67;0.67;0.67
66195;PMS7003;53000;45.182;5.736;2022-10-23T00:42:29;1.33;1.33;1.00
66195;PMS7003;53000;45.182;5.736;2022-10-23T00:47:39;0.67;0.67;0.67
66195;PMS7003;53000;45.182;5.736;2022-10-23T00:50:09;1.00;1.00;1.00
66195;PMS7003;53000;45.182;5.736;2022-10-23T00:52:37;2.00;2.00;1.00
66195;PMS7003;53000;45.182;5.736;2022-10-23T00:55:12;1.00;1.00;1.00
66195;PMS7003;53000;45.182;5.736;2022-10-23T00:57:42;2.00;2.00;1.00
66195;PMS7003;53000;45.182;5.736;2022-10-23T01:00:13;1.00;1.00;1.00
66195;PMS7003;53000;45.182;5.736;2022-10-23T01:02:43;2.00;1.00;1.00
66195;PMS7003;53000;45.182;5.736;2022-10-23T01:05:14;1.00;1.00;1.00
66195;PMS7003;53000;45.182;5.736;2022-10-23T01:11:01;4.33;1.33;0.67
66195;PMS7003;53000;45.182;5.736;2022-10-23T01:13:36;0.67;0.67;0.67
66195;PMS7003;53000;45.182;5.736;2022-10-23T01:16:13;0.67;0.67;0.67
66195;PMS7003;53000;45.182;5.736;2022-10-23T01:18:52;1.33;1.33;1.00
66195;PMS7003;53000;45.182;5.736;2022-10-23T01:21:30;0.67;0.67;0.67
66195;PMS7003;53000;45.182;5.736;2022-10-23T01:27:30;1.67;1.33;1.33
66195;PMS7003;53000;45.182;5.736;2022-10-23T01:29:54;0.67;0.67;0.67
66195;PMS7003;53000;45.182;5.736;2022-10-23T01:32:36;2.67;1.00;0.67
66195;PMS7003;53000;45.182;5.736;2022-10-23T01:38:17;1.00;1.00;0.67
66195;PMS7003;53000;45.182;5.736;2022-10-23T01:40:53;0.67;0.67;0.67
66195;PMS7003;53000;45.182;5.736;2022-10-23T01:43:26;2.00;1.33;1.00
66195;PMS7003;53000;45.182;5.736;2022-10-23T01:46:06;0.67;0.67;0.67
66195;PMS7003;53000;45.182;5.736;2022-10-23T01:48:36;1.33;1.00;1.00
66195;PMS7003;53000;45.182;5.736;2022-10-23T01:51:03;1.67;1.67;1.00
66195;PMS7003;53000;45.182;5.736;2022-10-23T01:53:33;1.67;1.67;1.67
66195;PMS7003;53000;45.182;5.736;2022-10-23T01:56:05;0.67;0.67;0.67
66195;PMS7003;53000;45.182;5.736;2022-10-23T01:58:54;2.00;0.67;0.67
66195;PMS7003;53000;45.182;5.736;2022-10-23T02:01:28;1.67;0.67;0.67
66195;PMS7003;53000;45.182;5.736;2022-10-23T02:03:56;1.67;1.67;0.67
66195;PMS7003;53000;45.182;5.736;2022-10-23T02:06:27;1.33;0.67;0.67
66195;PMS7003;53000;45.182;5.736;2022-10-23T02:08:52;1.00;0.67;0.67
66195;PMS7003;53000;45.182;5.736;2022-10-23T02:11:20;2.67;1.33;0.67
66195;PMS7003;53000;45.182;5.736;2022-10-23T02:14:12;1.33;0.67;0.67
66195;PMS7003;53000;45.182;5.736;2022-10-23T02:16:53;1.00;1.00;0.67
66195;PMS7003;53000;45.182;5.736;2022-10-23T02:19:27;2.33;2.00;1.67
66195;PMS7003;53000;45.182;5.736;2022-10-23T02:27:39;1.00;1.00;1.00
66195;PMS7003;53000;45.182;5.736;2022-10-23T02:30:11;1.33;1.33;0.67
66195;PMS7003;53000;45.182;5.736;2022-10-23T02:32:44;1.67;0.67;0.67
66195;PMS7003;53000;45.182;5.736;2022-10-23T02:35:17;2.00;1.33;1.33
66195;PMS7003;53000;45.182;5.736;2022-10-23T02:37:51;3.00;1.00;1.00
66195;PMS7003;53000;45.182;5.736;2022-10-23T02:40:19;3.00;0.67;0.67
66195;PMS7003;53000;45.182;5.736;2022-10-23T02:42:51;2.67;0.67;0.67
66195;PMS7003;53000;45.182;5.736;2022-10-23T02:45:29;2.00;1.33;0.67
66195;PMS7003;53000;45.182;5.736;2022-10-23T02:51:27;0.67;0.67;0.67
66195;PMS7003;53000;45.182;5.736;2022-10-23T02:53:52;1.00;1.00;1.00
66195;PMS7003;53000;45.182;5.736;2022-10-23T02:56:43;1.67;1.33;1.33
66195;PMS7003;53000;45.182;5.736;2022-10-23T02:59:42;1.00;1.00;1.00
66195;PMS7003;53000;45.182;5.736;2022-10-23T03:02:10;3.00;1.67;1.00
66195;PMS7003;53000;45.182;5.736;2022-10-23T03:04:46;2.00;1.00;1.00
66195;PMS7003;53000;45.182;5.736;2022-10-23T03:07:13;0.33;0.33;0.00
66195;PMS7003;53000;45.182;5.736;2022-10-23T03:09:39;1.00;0.67;0.00
66195;PMS7003;53000;45.182;5.736;2022-10-23T03:12:04;1.67;1.00;1.00
66195;PMS7003;53000;45.182;5.736;2022-10-23T03:14:32;2.00;1.00;1.00
66195;PMS7003;53000;45.182;5.736;2022-10-23T03:16:58;1.00;1.00;0.00
66195;PMS7003;53000;45.182;5.736;2022-10-23T03:19:26;1.33;1.33;1.00
66195;PMS7003;53000;45.182;5.736;2022-10-23T03:21:51;1.00;1.00;1.00
66195;PMS7003;53000;45.182;5.736;2022-10-23T03:24:19;2.00;1.00;1.00
66195;PMS7003;53000;45.182;5.736;2022-10-23T03:26:47;1.00;1.00;1.00
66195;PMS7003;53000;45.182;5.736;2022-10-23T03:29:12;1.00;1.00;1.00
66195;PMS7003;53000;45.182;5.736;2022-10-23T03:31:41;1.00;1.00;1.00
66195;PMS7003;53000;45.182;5.736;2022-10-23T03:34:06;1.00;1.00;1.00
66195;PMS7003;53000;45.182;5.736;2022-10-23T03:36:35;1.33;1.00;1.00
66195;PMS7003;53000;45.182;5.736;2022-10-23T03:39:04;1.67;1.00;1.00
66195;PMS7003;53000;45.182;5.736;2022-10-23T03:41:29;1.00;0.33;0.00
66195;PMS7003;53000;45.182;5.736;2022-10-23T03:43:57;1.67;1.67;1.00
66195;PMS7003;53000;45.182;5.736;2022-10-23T03:46:30;1.00;1.00;1.00
66195;PMS7003;53000;45.182;5.736;2022-10-23T03:48:55;1.00;1.00;1.00
66195;PMS7003;53000;45.182;5.736;2022-10-23T03:51:24;1.00;1.00;1.00
66195;PMS7003;53000;45.182;5.736;2022-10-23T03:53:53;2.00;1.00;1.00
66195;PMS7003;53000;45.182;5.736;2022-10-23T03:56:18;2.00;0.33;0.33
66195;PMS7003;53000;45.182;5.736;2022-10-23T03:58:44;1.00;1.00;1.00
66195;PMS7003;53000;45.182;5.736;2022-10-23T04:01:09;0.67;0.67;0.67
66195;PMS7003;53000;45.182;5.736;2022-10-23T04:03:37;1.00;1.00;1.00
66195;PMS7003;53000;45.182;5.736;2022-10-23T04:06:05;1.00;1.00;1.00
66195;PMS7003;53000;45.182;5.736;2022-10-23T04:08:41;2.00;2.00;1.00
66195;PMS7003;53000;45.182;5.736;2022-10-23T04:11:08;1.67;1.00;1.00
66195;PMS7003;53000;45.182;5.736;2022-10-23T04:13:34;1.00;1.00;1.00
66195;PMS7003;53000;45.182;5.736;2022-10-23T04:15:59;1.67;1.67;1.00
66195;PMS7003;53000;45.182;5.736;2022-10-23T04:18:25;1.33;1.00;1.00
66195;PMS7003;53000;45.182;5.736;2022-10-23T04:20:51;1.00;1.00;1.00
66195;PMS7003;53000;45.182;5.736;2022-10-23T04:23:19;1.00;1.00;1.00
66195;PMS7003;53000;45.182;5.736;2022-10-23T04:25:47;1.00;1.00;1.00
66195;PMS7003;53000;45.182;5.736;2022-10-23T04:28:17;2.00;1.00;1.00
66195;PMS7003;53000;45.182;5.736;2022-10-23T04:30:42;1.00;1.00;0.00
66195;PMS7003;53000;45.182;5.736;2022-10-23T04:33:12;1.33;0.67;0.67
66195;PMS7003;53000;45.182;5.736;2022-10-23T04:35:41;1.00;1.00;1.00
66195;PMS7003;53000;45.182;5.736;2022-10-23T04:38:06;2.00;0.67;0.33
66195;PMS7003;53000;45.182;5.736;2022-10-23T04:40:31;1.00;1.00;1.00
66195;PMS7003;53000;45.182;5.736;2022-10-23T04:42:57;2.00;1.33;1.00
66195;PMS7003;53000;45.182;5.736;2022-10-23T04:45:22;1.00;0.67;0.67
66195;PMS7003;53000;45.182;5.736;2022-10-23T04:47:50;0.33;0.33;0.33
66195;PMS7003;53000;45.182;5.736;2022-10-23T04:50:17;0.67;0.67;0.00
66195;PMS7003;53000;45.182;5.736;2022-10-23T04:52:43;2.00;1.33;1.33
66195;PMS7003;53000;45.182;5.736;2022-10-23T04:55:09;2.00;0.67;0.33
66195;PMS7003;53000;45.182;5.736;2022-10-23T04:57:34;2.00;1.00;1.00
66195;PMS7003;53000;45.182;5.736;2022-10-23T04:59:59;2.33;1.00;1.00
66195;PMS7003;53000;45.182;5.736;2022-10-23T05:02:25;5.00;1.67;1.00
66195;PMS7003;53000;45.182;5.736;2022-10-23T05:04:54;1.00;1.00;1.00
66195;PMS7003;53000;45.182;5.736;2022-10-23T05:07:19;3.00;2.00;2.00
66195;PMS7003;53000;45.182;5.736;2022-10-23T05:09:49;1.00;1.00;1.00
66195;PMS7003;53000;45.182;5.736;2022-10-23T05:12:14;1.00;1.00;1.00
66195;PMS7003;53000;45.182;5.736;2022-10-23T05:14:40;1.00;1.00;1.00
66195;PMS7003;53000;45.182;5.736;2022-10-23T05:17:15;2.00;2.00;2.00
66195;PMS7003;53000;45.182;5.736;2022-10-23T05:19:56;1.00;1.00;1.00
66195;PMS7003;53000;45.182;5.736;2022-10-23T05:22:26;1.00;1.00;1.00
66195;PMS7003;53000;45.182;5.736;2022-10-23T05:24:56;1.00;0.67;0.67
66195;PMS7003;53000;45.182;5.736;2022-10-23T05:27:30;1.00;1.00;1.00
66195;PMS7003;53000;45.182;5.736;2022-10-23T05:29:56;1.00;1.00;0.67
66195;PMS7003;53000;45.182;5.736;2022-10-23T05:32:21;0.00;0.00;0.00
66195;PMS7003;53000;45.182;5.736;2022-10-23T05:34:49;1.00;1.00;1.00
66195;PMS7003;53000;45.182;5.736;2022-10-23T05:37:15;3.00;1.00;1.00
66195;PMS7003;53000;45.182;5.736;2022-10-23T05:39:41;1.00;1.00;1.00
66195;PMS7003;53000;45.182;5.736;2022-10-23T05:42:06;0.67;0.67;0.00
66195;PMS7003;53000;45.182;5.736;2022-10-23T05:44:36;4.00;2.33;2.00
66195;PMS7003;53000;45.182;5.736;2022-10-23T05:47:02;1.00;1.00;1.00
66195;PMS7003;53000;45.182;5.736;2022-10-23T05:49:27;0.33;0.33;0.33
66195;PMS7003;53000;45.182;5.736;2022-10-23T05:51:55;2.00;2.00;1.00
66195;PMS7003;53000;45.182;5.736;2022-10-23T05:54:30;2.00;2.00;2.00
66195;PMS7003;53000;45.182;5.736;2022-10-23T05:56:56;1.00;0.00;0.00
66195;PMS7003;53000;45.182;5.736;2022-10-23T05:59:21;1.00;1.00;1.00
66195;PMS7003;53000;45.182;5.736;2022-10-23T06:01:47;1.00;1.00;0.67
66195;PMS7003;53000;45.182;5.736;2022-10-23T06:04:17;2.00;1.00;0.67
66195;PMS7003;53000;45.182;5.736;2022-10-23T06:06:46;1.00;1.00;1.00
66195;PMS7003;53000;45.182;5.736;2022-10-23T06:09:13;3.00;1.33;1.33
66195;PMS7003;53000;45.182;5.736;2022-10-23T06:11:39;1.00;1.00;0.33
66195;PMS7003;53000;45.182;5.736;2022-10-23T06:14:05;2.00;1.00;1.00
66195;PMS7003;53000;45.182;5.736;2022-10-23T06:16:33;2.00;2.00;1.00
66195;PMS7003;53000;45.182;5.736;2022-10-23T06:19:01;1.00;1.00;1.00
66195;PMS7003;53000;45.182;5.736;2022-10-23T06:21:26;0.33;0.33;0.33
66195;PMS7003;53000;45.182;5.736;2022-10-23T06:23:54;0.00;0.00;0.00
66195;PMS7003;53000;45.182;5.736;2022-10-23T06:26:26;1.00;1.00;1.00
66195;PMS7003;53000;45.182;5.736;2022-10-23T06:28:54;3.00;1.33;1.33
66195;PMS7003;53000;45.182;5.736;2022-10-23T06:31:20;1.67;1.00;1.00
66195;PMS7003;53000;45.182;5.736;2022-10-23T06:33:51;2.00;1.00;1.00
66195;PMS7003;53000;45.182;5.736;2022-10-23T06:36:21;0.00;0.00;0.00
66195;PMS7003;53000;45.182;5.736;2022-10-23T06:38:50;3.00;2.00;2.00
66195;PMS7003;53000;45.182;5.736;2022-10-23T06:41:16;1.33;0.67;0.67
66195;PMS7003;53000;45.182;5.736;2022-10-23T06:43:46;1.00;1.00;0.33
66195;PMS7003;53000;45.182;5.736;2022-10-23T06:46:12;1.00;1.00;1.00
66195;PMS7003;53000;45.182;5.736;2022-10-23T06:48:40;1.00;1.00;1.00
66195;PMS7003;53000;45.182;5.736;2022-10-23T06:51:09;1.67;1.00;0.00
66195;PMS7003;53000;45.182;5.736;2022-10-23T06:53:40;0.67;0.00;0.00
66195;PMS7003;53000;45.182;5.736;2022-10-23T06:56:07;1.67;1.67;1.67
66195;PMS7003;53000;45.182;5.736;2022-10-23T06:58:33;2.00;0.67;0.67
66195;PMS7003;53000;45.182;5.736;2022-10-23T07:01:02;1.00;1.00;1.00
66195;PMS7003;53000;45.182;5.736;2022-10-23T07:03:32;1.00;1.00;1.00
66195;PMS7003;53000;45.182;5.736;2022-10-23T07:06:02;2.33;2.33;1.67
66195;PMS7003;53000;45.182;5.736;2022-10-23T07:08:34;5.00;3.25;3.00
66195;PMS7003;53000;45.182;5.736;2022-10-23T07:11:05;3.00;2.67;2.00
66195;PMS7003;53000;45.182;5.736;2022-10-23T07:13:35;1.67;1.33;0.67
66195;PMS7003;53000;45.182;5.736;2022-10-23T07:16:12;1.00;1.00;1.00
66195;PMS7003;53000;45.182;5.736;2022-10-23T07:18:40;3.67;1.00;0.67
66195;PMS7003;53000;45.182;5.736;2022-10-23T07:21:07;1.67;1.67;1.67
66195;PMS7003;53000;45.182;5.736;2022-10-23T07:23:35;2.00;1.00;1.00
66195;PMS7003;53000;45.182;5.736;2022-10-23T07:26:03;1.67;1.33;0.67
66195;PMS7003;53000;45.182;5.736;2022-10-23T07:28:33;1.00;1.00;1.00
66195;PMS7003;53000;45.182;5.736;2022-10-23T07:30:59;1.00;1.00;1.00
66195;PMS7003;53000;45.182;5.736;2022-10-23T07:33:27;1.67;1.67;1.67
66195;PMS7003;53000;45.182;5.736;2022-10-23T07:35:55;1.67;1.67;1.33
66195;PMS7003;53000;45.182;5.736;2022-10-23T07:38:20;1.33;1.33;1.00
66195;PMS7003;53000;45.182;5.736;2022-10-23T07:40:46;3.25;2.25;1.75
66195;PMS7003;53000;45.182;5.736;2022-10-23T07:43:11;1.67;0.67;0.67
66195;PMS7003;53000;45.182;5.736;2022-10-23T07:45:36;1.00;1.00;0.50
66195;PMS7003;53000;45.182;5.736;2022-10-23T07:48:02;1.00;1.00;1.00
66195;PMS7003;53000;45.182;5.736;2022-10-23T07:50:27;1.75;1.75;1.25
66195;PMS7003;53000;45.182;5.736;2022-10-23T07:52:57;1.67;1.67;1.67
66195;PMS7003;53000;45.182;5.736;2022-10-23T07:55:23;2.67;1.67;1.67
66195;PMS7003;53000;45.182;5.736;2022-10-23T07:57:48;2.33;1.33;0.67
66195;PMS7003;53000;45.182;5.736;2022-10-23T08:00:16;1.67;1.67;1.67
66195;PMS7003;53000;45.182;5.736;2022-10-23T08:02:44;1.00;1.00;1.00
66195;PMS7003;53000;45.182;5.736;2022-10-23T08:05:14;0.67;0.67;0.67
66195;PMS7003;53000;45.182;5.736;2022-10-23T08:07:43;1.00;0.67;0.67
66195;PMS7003;53000;45.182;5.736;2022-10-23T08:10:13;0.67;0.67;0.67
66195;PMS7003;53000;45.182;5.736;2022-10-23T08:12:41;4.33;1.33;1.00
66195;PMS7003;53000;45.182;5.736;2022-10-23T08:15:06;1.00;0.67;0.67
66195;PMS7003;53000;45.182;5.736;2022-10-23T08:17:34;2.33;2.33;1.67
66195;PMS7003;53000;45.182;5.736;2022-10-23T08:20:00;2.33;1.33;0.67
66195;PMS7003;53000;45.182;5.736;2022-10-23T08:22:25;1.00;1.00;1.00
66195;PMS7003;53000;45.182;5.736;2022-10-23T08:24:50;1.67;1.67;0.67
66195;PMS7003;53000;45.182;5.736;2022-10-23T08:27:16;2.67;1.67;1.33
66195;PMS7003;53000;45.182;5.736;2022-10-23T08:29:41;3.33;1.00;1.00
66195;PMS7003;53000;45.182;5.736;2022-10-23T08:32:06;2.67;0.67;0.67
66195;PMS7003;53000;45.182;5.736;2022-10-23T08:34:32;1.33;0.67;0.67
66195;PMS7003;53000;45.182;5.736;2022-10-23T08:36:57;3.00;2.00;2.00
66195;PMS7003;53000;45.182;5.736;2022-10-23T08:39:22;1.67;1.67;0.67
66195;PMS7003;53000;45.182;5.736;2022-10-23T08:41:49;1.67;0.67;0.33
66195;PMS7003;53000;45.182;5.736;2022-10-23T08:44:32;1.67;0.33;0.33
66195;PMS7003;53000;45.182;5.736;2022-10-23T08:47:25;2.00;0.67;0.67
66195;PMS7003;53000;45.182;5.736;2022-10-23T08:49:56;0.67;0.67;0.33
66195;PMS7003;53000;45.182;5.736;2022-10-23T08:52:31;1.67;1.33;1.00
66195;PMS7003;53000;45.182;5.736;2022-10-23T08:55:22;0.67;0.67;0.67
66195;PMS7003;53000;45.182;5.736;2022-10-23T09:00:17;1.33;1.33;1.00
66195;PMS7003;53000;45.182;5.736;2022-10-23T09:02:49;1.33;1.33;1.00
66195;PMS7003;53000;45.182;5.736;2022-10-23T09:06:04;1.33;1.00;1.00
66195;PMS7003;53000;45.182;5.736;2022-10-23T09:08:27;0.67;0.67;0.67
66195;PMS7003;53000;45.182;5.736;2022-10-23T09:13:58;2.00;1.00;0.67
66195;PMS7003;53000;45.182;5.736;2022-10-23T09:19:37;1.00;0.67;0.67
66195;PMS7003;53000;45.182;5.736;2022-10-23T09:22:03;2.00;0.67;0.67
66195;PMS7003;53000;45.182;5.736;2022-10-23T09:24:32;0.00;0.00;0.00
66195;PMS7003;53000;45.182;5.736;2022-10-23T09:27:02;0.67;0.67;0.67
66195;PMS7003;53000;45.182;5.736;2022-10-23T09:29:32;0.67;0.67;0.67
66195;PMS7003;53000;45.182;5.736;2022-10-23T09:32:03;0.33;0.33;0.00
66195;PMS7003;53000;45.182;5.736;2022-10-23T09:34:30;2.67;1.33;0.67
66195;PMS7003;53000;45.182;5.736;2022-10-23T09:37:03;0.00;0.00;0.00
66195;PMS7003;53000;45.182;5.736;2022-10-23T09:39:44;1.67;1.67;1.00
66195;PMS7003;53000;45.182;5.736;2022-10-23T09:42:28;2.00;2.00;1.00
66195;PMS7003;53000;45.182;5.736;2022-10-23T09:44:56;3.33;0.67;0.67
66195;PMS7003;53000;45.182;5.736;2022-10-23T09:47:24;3.00;1.33;1.00
66195;PMS7003;53000;45.182;5.736;2022-10-23T09:49:51;2.67;2.67;2.33
66195;PMS7003;53000;45.182;5.736;2022-10-23T09:52:22;2.00;2.00;1.33
66195;PMS7003;53000;45.182;5.736;2022-10-23T09:54:59;2.00;1.67;1.33
66195;PMS7003;53000;45.182;5.736;2022-10-23T10:00:00;4.67;2.67;1.00
66195;PMS7003;53000;45.182;5.736;2022-10-23T10:02:35;2.67;1.67;1.67
66195;PMS7003;53000;45.182;5.736;2022-10-23T10:11:00;2.00;2.00;1.00
66195;PMS7003;53000;45.182;5.736;2022-10-23T10:16:08;2.00;2.00;2.00
66195;PMS7003;53000;45.182;5.736;2022-10-23T10:21:20;2.00;2.00;1.00
66195;PMS7003;53000;45.182;5.736;2022-10-23T10:26:30;2.33;2.00;2.00
66195;PMS7003;53000;45.182;5.736;2022-10-23T10:31:47;1.67;1.67;1.33
66195;PMS7003;53000;45.182;5.736;2022-10-23T10:50:46;2.00;2.00;2.00
66195;PMS7003;53000;45.182;5.736;2022-10-23T10:53:33;4.67;2.67;2.00
66195;PMS7003;53000;45.182;5.736;2022-10-23T10:56:07;4.00;3.00;2.33
66195;PMS7003;53000;45.182;5.736;2022-10-23T10:58:46;6.33;4.33;3.33
66195;PMS7003;53000;45.182;5.736;2022-10-23T11:01:27;3.00;3.00;2.33
66195;PMS7003;53000;45.182;5.736;2022-10-23T11:06:41;3.00;1.67;1.67
66195;PMS7003;53000;45.182;5.736;2022-10-23T11:09:13;2.50;2.50;2.00
66195;PMS7003;53000;45.182;5.736;2022-10-23T11:11:44;2.33;2.00;1.33
66195;PMS7003;53000;45.182;5.736;2022-10-23T11:14:18;2.33;2.33;2.00
66195;PMS7003;53000;45.182;5.736;2022-10-23T11:16:48;7.33;6.67;5.67
66195;PMS7003;53000;45.182;5.736;2022-10-23T11:19:28;4.00;4.00;4.00
66195;PMS7003;53000;45.182;5.736;2022-10-23T11:22:09;2.33;2.33;2.00
66195;PMS7003;53000;45.182;5.736;2022-10-23T11:32:35;15.00;15.00;11.75
66195;PMS7003;53000;45.182;5.736;2022-10-23T11:37:58;3.00;3.00;2.33
66195;PMS7003;53000;45.182;5.736;2022-10-23T11:40:41;5.50;5.50;4.00
66195;PMS7003;53000;45.182;5.736;2022-10-23T11:43:12;3.33;3.00;2.33
66195;PMS7003;53000;45.182;5.736;2022-10-23T11:45:38;6.00;5.67;4.33
66195;PMS7003;53000;45.182;5.736;2022-10-23T11:56:03;4.00;3.00;3.00
66195;PMS7003;53000;45.182;5.736;2022-10-23T12:01:22;5.00;4.25;2.50
66195;PMS7003;53000;45.182;5.736;2022-10-23T12:03:57;5.00;4.00;3.33
66195;PMS7003;53000;45.182;5.736;2022-10-23T12:16:59;7.75;5.00;4.00
66195;PMS7003;53000;45.182;5.736;2022-10-23T12:19:28;5.33;5.00;3.67
66195;PMS7003;53000;45.182;5.736;2022-10-23T12:22:02;5.67;5.00;4.00
66195;PMS7003;53000;45.182;5.736;2022-10-23T12:27:12;6.33;4.67;4.00
66195;PMS7003;53000;45.182;5.736;2022-10-23T12:29:55;5.67;4.00;3.00
66195;PMS7003;53000;45.182;5.736;2022-10-23T12:38:04;6.67;4.67;3.00
66195;PMS7003;53000;45.182;5.736;2022-10-23T12:40:59;7.00;4.00;2.67
66195;PMS7003;53000;45.182;5.736;2022-10-23T12:43:31;8.50;3.50;3.25
66195;PMS7003;53000;45.182;5.736;2022-10-23T12:46:26;6.75;2.00;1.00
66195;PMS7003;53000;45.182;5.736;2022-10-23T12:48:56;5.67;4.33;3.00
66195;PMS7003;53000;45.182;5.736;2022-10-23T12:51:23;4.75;3.50;2.00
66195;PMS7003;53000;45.182;5.736;2022-10-23T12:53:50;3.50;3.00;1.75
66195;PMS7003;53000;45.182;5.736;2022-10-23T12:56:16;10.00;4.00;3.00
66195;PMS7003;53000;45.182;5.736;2022-10-23T12:58:49;10.25;5.00;2.50
66195;PMS7003;53000;45.182;5.736;2022-10-23T13:01:28;7.50;5.00;3.00
66195;PMS7003;53000;45.182;5.736;2022-10-23T13:03:56;6.25;4.50;3.50
66195;PMS7003;53000;45.182;5.736;2022-10-23T13:06:33;5.75;4.25;3.00
66195;PMS7003;53000;45.182;5.736;2022-10-23T13:09:02;5.25;4.75;3.25
66195;PMS7003;53000;45.182;5.736;2022-10-23T13:11:35;5.00;1.25;0.00
66195;PMS7003;53000;45.182;5.736;2022-10-23T13:14:10;7.25;4.00;2.00
66195;PMS7003;53000;45.182;5.736;2022-10-23T13:17:13;5.75;4.00;3.00
66195;PMS7003;53000;45.182;5.736;2022-10-23T13:19:38;8.25;4.25;3.00
66195;PMS7003;53000;45.182;5.736;2022-10-23T13:22:04;4.25;3.50;2.25
66195;PMS7003;53000;45.182;5.736;2022-10-23T13:24:44;4.75;2.25;2.00
66195;PMS7003;53000;45.182;5.736;2022-10-23T13:27:29;9.00;4.50;3.00
66195;PMS7003;53000;45.182;5.736;2022-10-23T13:29:57;5.50;4.75;3.00
66195;PMS7003;53000;45.182;5.736;2022-10-23T13:32:32;7.75;3.75;2.00
66195;PMS7003;53000;45.182;5.736;2022-10-23T13:34:57;6.00;4.00;3.00
66195;PMS7003;53000;45.182;5.736;2022-10-23T13:37:25;6.25;4.25;2.00
66195;PMS7003;53000;45.182;5.736;2022-10-23T13:40:00;5.75;3.75;3.00
66195;PMS7003;53000;45.182;5.736;2022-10-23T13:42:29;2.75;0.75;0.00
66195;PMS7003;53000;45.182;5.736;2022-10-23T13:44:55;6.00;4.00;3.00
66195;PMS7003;53000;45.182;5.736;2022-10-23T13:47:22;8.00;3.25;2.25
66195;PMS7003;53000;45.182;5.736;2022-10-23T13:49:52;6.50;3.00;2.25
66195;PMS7003;53000;45.182;5.736;2022-10-23T13:52:22;7.50;4.75;3.00
66195;PMS7003;53000;45.182;5.736;2022-10-23T13:54:51;5.50;3.25;1.50
66195;PMS7003;53000;45.182;5.736;2022-10-23T13:57:16;8.50;4.25;3.50
66195;PMS7003;53000;45.182;5.736;2022-10-23T13:59:44;6.50;3.00;2.00
66195;PMS7003;53000;45.182;5.736;2022-10-23T14:02:13;4.00;4.00;3.00
66195;PMS7003;53000;45.182;5.736;2022-10-23T14:04:42;8.00;5.75;4.00
66195;PMS7003;53000;45.182;5.736;2022-10-23T14:07:11;7.25;3.50;2.00
66195;PMS7003;53000;45.182;5.736;2022-10-23T14:09:36;7.25;4.00;3.00
66195;PMS7003;53000;45.182;5.736;2022-10-23T14:12:02;11.50;6.00;4.00
66195;PMS7003;53000;45.182;5.736;2022-10-23T14:14:28;6.00;4.75;3.00
66195;PMS7003;53000;45.182;5.736;2022-10-23T14:16:53;5.25;4.00;3.00
66195;PMS7003;53000;45.182;5.736;2022-10-23T14:19:19;4.50;3.50;2.00
66195;PMS7003;53000;45.182;5.736;2022-10-23T14:21:46;3.75;2.25;1.00
66195;PMS7003;53000;45.182;5.736;2022-10-23T14:24:12;6.50;3.50;2.75
66195;PMS7003;53000;45.182;5.736;2022-10-23T14:26:38;5.75;4.00;2.50
66195;PMS7003;53000;45.182;5.736;2022-10-23T14:29:04;6.67;3.33;2.00
66195;PMS7003;53000;45.182;5.736;2022-10-23T14:31:30;9.00;6.25;4.00
66195;PMS7003;53000;45.182;5.736;2022-10-23T14:33:58;6.00;4.75;3.00
66195;PMS7003;53000;45.182;5.736;2022-10-23T14:36:27;5.25;4.50;2.25
66195;PMS7003;53000;45.182;5.736;2022-10-23T14:38:56;6.75;3.00;2.25
66195;PMS7003;53000;45.182;5.736;2022-10-23T14:41:23;7.00;4.75;2.75
66195;PMS7003;53000;45.182;5.736;2022-10-23T14:43:49;8.00;4.75;3.25
66195;PMS7003;53000;45.182;5.736;2022-10-23T14:46:17;9.75;4.00;2.50
66195;PMS7003;53000;45.182;5.736;2022-10-23T14:48:47;6.00;4.25;2.75
66195;PMS7003;53000;45.182;5.736;2022-10-23T14:51:17;5.75;3.00;2.00
66195;PMS7003;53000;45.182;5.736;2022-10-23T14:53:55;5.75;3.50;2.00
66195;PMS7003;53000;45.182;5.736;2022-10-23T14:56:25;6.25;3.75;3.00
66195;PMS7003;53000;45.182;5.736;2022-10-23T14:58:56;11.75;5.50;3.00
66195;PMS7003;53000;45.182;5.736;2022-10-23T15:01:29;2.50;2.00;1.00
66195;PMS7003;53000;45.182;5.736;2022-10-23T15:03:59;14.25;3.75;2.25
66195;PMS7003;53000;45.182;5.736;2022-10-23T15:06:27;9.75;5.25;3.75
66195;PMS7003;53000;45.182;5.736;2022-10-23T15:08:56;7.50;4.00;3.00
66195;PMS7003;53000;45.182;5.736;2022-10-23T15:11:22;6.25;5.00;3.25
66195;PMS7003;53000;45.182;5.736;2022-10-23T15:13:48;3.50;3.00;1.00
66195;PMS7003;53000;45.182;5.736;2022-10-23T15:16:14;6.75;6.00;3.75
66195;PMS7003;53000;45.182;5.736;2022-10-23T15:18:40;5.75;5.00;3.00
66195;PMS7003;53000;45.182;5.736;2022-10-23T15:21:06;5.25;4.75;3.50
66195;PMS7003;53000;45.182;5.736;2022-10-23T15:23:38;7.75;5.00;4.00
66195;PMS7003;53000;45.182;5.736;2022-10-23T15:26:06;5.00;3.75;2.25
66195;PMS7003;53000;45.182;5.736;2022-10-23T15:28:35;5.75;4.75;2.25
66195;PMS7003;53000;45.182;5.736;2022-10-23T15:31:01;6.25;5.75;3.00
66195;PMS7003;53000;45.182;5.736;2022-10-23T15:33:26;9.75;6.50;5.00
66195;PMS7003;53000;45.182;5.736;2022-10-23T15:35:54;13.25;8.25;5.00
66195;PMS7003;53000;45.182;5.736;2022-10-23T15:38:23;7.75;6.75;5.00
66195;PMS7003;53000;45.182;5.736;2022-10-23T15:40:53;8.00;6.75;5.25
66195;PMS7003;53000;45.182;5.736;2022-10-23T15:43:27;10.00;6.50;6.00
66195;PMS7003;53000;45.182;5.736;2022-10-23T15:45:56;8.25;6.50;5.00
66195;PMS7003;53000;45.182;5.736;2022-10-23T15:48:24;9.75;7.00;5.00
66195;PMS7003;53000;45.182;5.736;2022-10-23T15:50:53;11.00;9.75;5.75
66195;PMS7003;53000;45.182;5.736;2022-10-23T15:53:19;5.00;2.25;1.00
66195;PMS7003;53000;45.182;5.736;2022-10-23T15:55:47;11.00;8.00;5.75
66195;PMS7003;53000;45.182;5.736;2022-10-23T15:58:15;13.00;7.00;3.75
66195;PMS7003;53000;45.182;5.736;2022-10-23T16:00:40;10.00;9.00;5.50
66195;PMS7003;53000;45.182;5.736;2022-10-23T16:03:11;9.50;7.75;5.25
66195;PMS7003;53000;45.182;5.736;2022-10-23T16:05:36;6.25;6.25;5.00
66195;PMS7003;53000;45.182;5.736;2022-10-23T16:08:04;8.00;7.25;6.00
66195;PMS7003;53000;45.182;5.736;2022-10-23T16:10:37;10.75;8.25;6.00
66195;PMS7003;53000;45.182;5.736;2022-10-23T16:13:08;11.25;8.25;6.00
66195;PMS7003;53000;45.182;5.736;2022-10-23T16:15:34;10.00;8.50;6.00
66195;PMS7003;53000;45.182;5.736;2022-10-23T16:18:00;8.50;8.00;5.00
66195;PMS7003;53000;45.182;5.736;2022-10-23T16:20:25;13.50;11.00;7.75
66195;PMS7003;53000;45.182;5.736;2022-10-23T16:22:55;12.50;8.50;5.25
66195;PMS7003;53000;45.182;5.736;2022-10-23T16:25:23;6.75;5.00;4.00